createdAt,value
2022-10-19T00:00:01.334Z,16.10
2022-10-19T00:02:31.280Z,16.10
2022-10-19T00:05:01.301Z,16.10
2022-10-19T00:07:31.578Z,16.00
2022-10-19T00:10:01.277Z,16.00
2022-10-19T00:12:31.442Z,15.90
2022-10-19T00:15:01.409Z,15.80
2022-10-19T00:17:31.569Z,15.80
2022-10-19T00:20:01.565Z,15.80
2022-10-19T00:22:31.923Z,15.80
2022-10-19T00:25:01.442Z,15.80
2022-10-19T00:27:31.359Z,15.80
2022-10-19T00:30:01.003Z,15.40
2022-10-19T00:32:31.020Z,15.30
2022-10-19T00:35:00.892Z,15.30
2022-10-19T00:37:30.936Z,15.20
2022-10-19T00:40:00.901Z,15.30
2022-10-19T00:42:31.165Z,15.10
2022-10-19T00:45:02.290Z,15.20
2022-10-19T00:47:32.307Z,15.40
2022-10-19T00:50:01.678Z,15.40
2022-10-19T00:52:31.629Z,15.40
2022-10-19T00:55:02.275Z,15.20
2022-10-19T00:57:32.770Z,15.00
2022-10-19T01:00:06.044Z,15.10
2022-10-19T01:02:33.530Z,15.20
2022-10-19T01:05:02.284Z,15.40
2022-10-19T01:07:32.025Z,15.30
2022-10-19T01:10:02.209Z,15.30
2022-10-19T01:12:49.064Z,15.10
2022-10-19T01:15:18.143Z,15.00
2022-10-19T01:18:00.830Z,14.80
2022-10-19T01:20:30.848Z,14.60
2022-10-19T01:23:16.107Z,14.80
2022-10-19T01:26:07.678Z,14.80
2022-10-19T01:29:04.198Z,14.90
2022-10-19T01:31:49.197Z,14.90
2022-10-19T01:34:16.588Z,14.80
2022-10-19T01:36:47.999Z,14.90
2022-10-19T01:39:40.078Z,14.90
2022-10-19T01:42:22.535Z,15.00
2022-10-19T01:45:05.393Z,14.70
2022-10-19T01:47:43.345Z,14.60
2022-10-19T01:50:19.719Z,14.60
2022-10-19T01:52:49.648Z,14.70
2022-10-19T01:55:18.532Z,14.30
2022-10-19T01:57:56.614Z,14.30
2022-10-19T02:00:40.533Z,14.50
2022-10-19T02:03:13.636Z,14.70
2022-10-19T02:05:42.435Z,14.70
2022-10-19T02:08:28.796Z,14.40
2022-10-19T02:11:00.597Z,14.30
2022-10-19T02:13:32.049Z,14.40
2022-10-19T02:16:14.416Z,14.60
2022-10-19T02:18:46.581Z,14.70
2022-10-19T02:21:14.350Z,14.80
2022-10-19T02:23:41.613Z,14.90
2022-10-19T02:26:09.562Z,14.40
2022-10-19T02:28:37.351Z,14.30
2022-10-19T02:31:13.305Z,14.40
2022-10-19T02:33:42.098Z,14.30
2022-10-19T02:36:09.356Z,14.40
2022-10-19T02:38:36.845Z,14.40
2022-10-19T02:41:23.359Z,14.50
2022-10-19T02:43:58.652Z,14.50
2022-10-19T02:49:13.379Z,14.50
2022-10-19T02:51:58.649Z,14.60
2022-10-19T02:54:27.004Z,14.70
2022-10-19T02:56:56.744Z,14.60
2022-10-19T02:59:25.016Z,14.60
2022-10-19T03:01:52.571Z,14.70
2022-10-19T03:04:19.983Z,14.70
2022-10-19T03:06:47.351Z,14.70
2022-10-19T03:09:14.861Z,14.60
2022-10-19T03:11:42.365Z,14.50
2022-10-19T03:14:10.057Z,14.00
2022-10-19T03:16:39.552Z,13.90
2022-10-19T03:19:09.545Z,13.90
2022-10-19T03:21:37.375Z,13.60
2022-10-19T03:24:05.167Z,13.70
2022-10-19T03:26:32.924Z,13.80
2022-10-19T03:29:01.564Z,13.70
2022-10-19T03:31:31.942Z,13.30
2022-10-19T03:34:00.730Z,13.10
2022-10-19T03:36:33.992Z,13.10
2022-10-19T03:39:05.238Z,13.10
2022-10-19T03:41:36.442Z,13.30
2022-10-19T03:44:04.906Z,13.50
2022-10-19T03:46:34.383Z,13.50
2022-10-19T03:49:02.025Z,13.50
2022-10-19T03:51:31.169Z,13.60
2022-10-19T03:54:01.724Z,13.70
2022-10-19T03:56:30.103Z,13.80
2022-10-19T03:59:00.589Z,13.90
2022-10-19T04:01:34.091Z,14.00
2022-10-19T04:04:04.890Z,14.10
2022-10-19T04:06:35.372Z,14.20
2022-10-19T04:09:05.609Z,14.00
2022-10-19T04:11:34.463Z,13.50
2022-10-19T04:14:02.559Z,13.40
2022-10-19T04:16:33.826Z,13.50
2022-10-19T04:19:02.230Z,13.70
2022-10-19T04:21:32.582Z,13.90
2022-10-19T04:24:12.764Z,14.00
2022-10-19T04:26:46.054Z,14.00
2022-10-19T04:29:14.546Z,14.10
2022-10-19T04:31:43.302Z,14.20
2022-10-19T04:34:11.317Z,14.10
2022-10-19T04:36:38.911Z,14.10
2022-10-19T04:39:07.282Z,14.00
2022-10-19T04:41:35.153Z,14.00
2022-10-19T04:44:04.244Z,13.90
2022-10-19T04:46:39.996Z,13.90
2022-10-19T04:49:08.249Z,13.70
2022-10-19T04:51:35.998Z,13.70
2022-10-19T04:54:04.520Z,13.90
2022-10-19T04:56:32.650Z,13.90
2022-10-19T04:59:00.760Z,14.10
2022-10-19T05:01:31.101Z,14.20
2022-10-19T05:04:00.567Z,14.20
2022-10-19T05:06:28.574Z,14.20
2022-10-19T05:08:57.592Z,14.00
2022-10-19T05:11:26.582Z,13.60
2022-10-19T05:13:56.753Z,13.50
2022-10-19T05:16:25.460Z,13.40
2022-10-19T05:18:59.305Z,13.00
2022-10-19T05:21:29.086Z,12.70
2022-10-19T05:23:57.849Z,12.70
2022-10-19T05:26:29.491Z,12.70
2022-10-19T05:29:01.968Z,12.90
2022-10-19T05:31:32.269Z,12.90
2022-10-19T05:34:00.579Z,12.80
2022-10-19T05:36:34.652Z,12.80
2022-10-19T05:39:08.065Z,12.80
2022-10-19T05:41:35.804Z,12.80
2022-10-19T05:44:05.062Z,12.90
2022-10-19T05:46:33.965Z,13.10
2022-10-19T05:49:01.489Z,13.30
2022-10-19T05:51:32.086Z,13.50
2022-10-19T05:53:59.768Z,13.60
2022-10-19T05:56:30.409Z,13.70
2022-10-19T05:58:58.368Z,13.80
2022-10-19T06:01:28.186Z,13.90
2022-10-19T06:03:57.836Z,14.00
2022-10-19T06:06:27.358Z,14.20
2022-10-19T06:08:57.166Z,14.30
2022-10-19T06:11:28.866Z,14.30
2022-10-19T06:13:59.597Z,14.30
2022-10-19T06:16:30.684Z,14.50
2022-10-19T06:18:59.010Z,14.60
2022-10-19T06:21:30.612Z,14.40
2022-10-19T06:24:00.573Z,14.40
2022-10-19T06:26:28.861Z,14.50
2022-10-19T06:29:00.795Z,14.60
2022-10-19T06:31:31.834Z,14.80
2022-10-19T06:33:59.814Z,14.90
2022-10-19T06:36:30.192Z,14.90
2022-10-19T06:38:57.575Z,15.00
2022-10-19T06:41:25.632Z,15.00
2022-10-19T06:43:56.505Z,15.10
2022-10-19T06:46:27.899Z,15.20
2022-10-19T06:49:01.036Z,15.40
2022-10-19T06:51:30.272Z,15.20
2022-10-19T06:53:57.777Z,15.20
2022-10-19T06:56:26.935Z,15.30
2022-10-19T06:58:56.752Z,15.30
2022-10-19T07:01:26.478Z,15.30
2022-10-19T07:03:56.617Z,15.60
2022-10-19T07:06:26.900Z,15.60
2022-10-19T07:08:55.617Z,15.80
2022-10-19T07:11:25.591Z,16.00
2022-10-19T07:13:58.000Z,16.00
2022-10-19T07:16:48.190Z,16.10
2022-10-19T07:19:43.503Z,16.20
2022-10-19T07:22:22.160Z,16.40
2022-10-19T07:25:01.113Z,16.40
2022-10-19T07:27:37.400Z,16.40
2022-10-19T07:30:26.524Z,16.40
2022-10-19T07:33:21.629Z,16.20
2022-10-19T07:36:21.236Z,16.10
2022-10-19T07:39:01.434Z,16.10
2022-10-19T07:41:53.154Z,16.40
2022-10-19T07:44:44.869Z,16.40
2022-10-19T07:47:42.337Z,16.50
2022-10-19T07:50:40.720Z,16.80
2022-10-19T07:53:39.735Z,17.00
2022-10-19T07:56:33.970Z,17.20
2022-10-19T07:59:02.860Z,17.40
2022-10-19T08:01:36.322Z,17.50
2022-10-19T08:06:55.251Z,17.80
2022-10-19T08:09:51.354Z,17.90
2022-10-19T08:12:15.083Z,17.90
2022-10-19T08:14:42.705Z,18.00
2022-10-19T08:17:12.119Z,18.10
2022-10-19T08:19:43.639Z,18.30
2022-10-19T08:22:34.603Z,18.50
2022-10-19T08:25:02.925Z,18.50
2022-10-19T08:27:31.362Z,18.30
2022-10-19T08:29:58.841Z,18.20
2022-10-19T08:32:27.197Z,18.30
2022-10-19T08:34:55.832Z,18.50
2022-10-19T08:37:40.628Z,18.70
2022-10-19T08:40:28.588Z,18.80
2022-10-19T08:43:01.935Z,18.80
2022-10-19T08:45:54.191Z,18.90
2022-10-19T08:48:25.535Z,19.10
2022-10-19T08:50:56.120Z,19.30
2022-10-19T08:53:45.450Z,19.50
2022-10-19T08:56:45.763Z,19.70
2022-10-19T08:59:28.697Z,19.70
2022-10-19T09:02:22.931Z,20.00
2022-10-19T09:04:59.822Z,20.10
2022-10-19T09:07:34.932Z,20.30
2022-10-19T09:10:19.172Z,20.50
2022-10-19T09:12:46.713Z,20.50
2022-10-19T09:15:38.875Z,20.50
2022-10-19T09:18:20.996Z,20.70
2022-10-19T09:21:05.010Z,20.70
2022-10-19T09:23:52.900Z,21.00
2022-10-19T09:26:25.312Z,21.00
2022-10-19T09:29:05.904Z,21.00
2022-10-19T09:31:43.788Z,21.10
2022-10-19T09:34:41.659Z,21.50
2022-10-19T09:37:09.048Z,21.70
2022-10-19T09:39:36.379Z,21.90
2022-10-19T09:42:33.807Z,21.70
2022-10-19T09:45:18.798Z,21.50
2022-10-19T09:47:49.149Z,21.80
2022-10-19T09:50:22.985Z,22.10
2022-10-19T09:52:55.374Z,22.50
2022-10-19T09:55:28.756Z,22.60
2022-10-19T09:58:02.209Z,22.70
2022-10-19T10:00:54.290Z,22.90
2022-10-19T10:03:35.523Z,23.00
2022-10-19T10:06:13.741Z,23.00
2022-10-19T10:08:59.008Z,23.10
2022-10-19T10:11:33.198Z,23.20
2022-10-19T10:14:09.822Z,23.40
2022-10-19T10:16:37.864Z,23.50
2022-10-19T10:19:13.314Z,23.60
2022-10-19T10:21:55.643Z,23.80
2022-10-19T10:24:29.437Z,23.90
2022-10-19T10:27:05.877Z,23.90
2022-10-19T10:29:39.326Z,24.00
2022-10-19T10:32:18.208Z,23.90
2022-10-19T10:34:59.955Z,23.90
2022-10-19T10:37:39.912Z,24.30
2022-10-19T10:40:26.694Z,24.70
2022-10-19T10:43:04.792Z,25.00
2022-10-19T10:45:58.681Z,25.20
2022-10-19T10:48:32.870Z,25.40
2022-10-19T10:51:01.877Z,25.40
2022-10-19T10:53:43.501Z,25.50
2022-10-19T10:56:33.618Z,25.60
2022-10-19T10:59:05.189Z,25.80
2022-10-19T11:01:49.126Z,25.80
2022-10-19T11:04:25.534Z,25.80
2022-10-19T11:06:59.546Z,25.80
2022-10-19T11:09:39.957Z,25.80
2022-10-19T11:12:12.794Z,26.00
2022-10-19T11:15:06.145Z,26.20
2022-10-19T11:17:41.450Z,25.90
2022-10-19T11:20:17.017Z,26.00
2022-10-19T11:23:07.288Z,25.50
2022-10-19T11:26:23.925Z,25.60
2022-10-19T11:29:15.933Z,26.00
2022-10-19T11:31:51.230Z,26.00
2022-10-19T11:35:06.547Z,26.20
2022-10-19T11:38:19.723Z,26.10
2022-10-19T11:41:17.251Z,26.40
2022-10-19T11:44:07.718Z,26.60
2022-10-19T11:46:39.633Z,26.80
2022-10-19T11:49:25.218Z,26.70
2022-10-19T11:52:09.364Z,26.70
2022-10-19T11:54:39.756Z,27.00
2022-10-19T11:57:17.428Z,27.10
2022-10-19T11:59:53.840Z,27.20
2022-10-19T12:02:39.975Z,26.60
2022-10-19T12:05:22.038Z,26.40
2022-10-19T12:07:49.373Z,26.30
2022-10-19T12:10:51.378Z,26.10
2022-10-19T12:13:23.655Z,26.20
2022-10-19T12:16:00.792Z,26.70
2022-10-19T12:18:41.469Z,26.90
2022-10-19T12:21:45.966Z,26.90
2022-10-19T12:24:18.394Z,27.10
2022-10-19T12:26:47.084Z,27.50
2022-10-19T12:29:25.950Z,27.50
2022-10-19T12:31:56.121Z,27.60
2022-10-19T12:34:46.936Z,27.50
2022-10-19T12:37:39.811Z,27.80
2022-10-19T12:40:40.278Z,28.00
2022-10-19T12:43:19.593Z,28.10
2022-10-19T12:46:17.465Z,28.10
2022-10-19T12:49:07.525Z,28.00
2022-10-19T12:51:46.454Z,28.00
2022-10-19T12:54:14.046Z,27.90
2022-10-19T12:56:53.857Z,27.50
2022-10-19T12:59:29.701Z,27.80
2022-10-19T13:02:01.528Z,28.00
2022-10-19T13:04:33.801Z,28.00
2022-10-19T13:07:05.612Z,28.10
2022-10-19T13:09:36.815Z,28.20
2022-10-19T13:12:19.778Z,28.30
2022-10-19T13:14:59.775Z,28.20
2022-10-19T13:17:38.324Z,27.90
2022-10-19T13:20:14.880Z,28.00
2022-10-19T13:22:47.453Z,28.30
2022-10-19T13:25:18.988Z,28.30
2022-10-19T13:27:52.620Z,28.30
2022-10-19T13:30:48.973Z,28.40
2022-10-19T13:33:35.112Z,27.60
2022-10-19T13:36:08.566Z,27.40
2022-10-19T13:39:06.085Z,27.10
2022-10-19T13:41:59.384Z,27.10
2022-10-19T13:44:30.383Z,27.40
2022-10-19T13:47:24.059Z,27.40
2022-10-19T13:50:09.077Z,27.20
2022-10-19T13:52:47.688Z,27.10
2022-10-19T13:55:50.325Z,27.20
2022-10-19T13:58:30.532Z,27.10
2022-10-19T14:01:22.215Z,27.00
2022-10-19T14:04:08.201Z,26.80
2022-10-19T14:06:54.829Z,26.90
2022-10-19T14:09:50.366Z,27.20
2022-10-19T14:12:22.532Z,27.50
2022-10-19T14:14:53.804Z,27.70
2022-10-19T14:17:26.110Z,28.00
2022-10-19T14:19:59.963Z,28.10
2022-10-19T14:22:36.361Z,28.10
2022-10-19T14:25:17.858Z,28.50
2022-10-19T14:27:47.138Z,28.50
2022-10-19T14:30:36.231Z,28.20
2022-10-19T14:33:10.818Z,28.10
2022-10-19T14:35:41.969Z,28.30
2022-10-19T14:38:19.357Z,28.60
2022-10-19T14:40:47.233Z,28.70
2022-10-19T14:43:35.341Z,27.60
2022-10-19T14:46:21.018Z,27.30
2022-10-19T14:48:59.954Z,27.60
2022-10-19T14:51:42.430Z,28.10
2022-10-19T14:54:37.306Z,28.50
2022-10-19T14:57:09.637Z,28.40
2022-10-19T14:59:39.847Z,29.40
2022-10-19T15:02:20.970Z,30.20
2022-10-19T15:04:50.815Z,30.70
2022-10-19T15:07:22.959Z,30.30
2022-10-19T15:09:58.045Z,30.60
2022-10-19T15:12:36.319Z,30.50
2022-10-19T15:15:36.390Z,29.50
2022-10-19T15:18:25.326Z,27.00
2022-10-19T15:21:14.440Z,25.50
2022-10-19T15:23:50.516Z,24.60
2022-10-19T15:26:20.993Z,24.30
2022-10-19T15:28:49.596Z,23.90
2022-10-19T15:31:25.097Z,23.60
2022-10-19T15:34:00.884Z,23.50
2022-10-19T15:36:33.419Z,23.50
2022-10-19T15:39:25.220Z,23.60
2022-10-19T15:42:24.891Z,23.60
2022-10-19T15:44:52.233Z,23.70
2022-10-19T15:47:23.313Z,23.60
2022-10-19T15:50:01.901Z,23.50
2022-10-19T15:52:33.488Z,23.40
2022-10-19T15:55:02.201Z,23.40
2022-10-19T15:57:39.311Z,23.30
2022-10-19T16:00:20.457Z,23.30
2022-10-19T16:02:50.525Z,23.20
2022-10-19T16:05:18.198Z,23.20
2022-10-19T16:07:45.777Z,23.20
2022-10-19T16:10:45.410Z,22.90
2022-10-19T16:13:12.990Z,22.80
2022-10-19T16:15:56.784Z,22.50
2022-10-19T16:18:41.373Z,22.30
2022-10-19T16:21:11.489Z,22.30
2022-10-19T16:23:42.228Z,22.20
2022-10-19T16:26:16.083Z,22.20
2022-10-19T16:28:44.110Z,22.00
2022-10-19T16:31:16.531Z,22.00
2022-10-19T16:33:44.035Z,22.00
2022-10-19T16:36:13.342Z,21.90
2022-10-19T16:38:42.228Z,21.90
2022-10-19T16:44:45.486Z,21.70
2022-10-19T16:47:14.284Z,21.60
2022-10-19T16:49:42.718Z,21.60
2022-10-19T16:52:14.363Z,21.60
2022-10-19T16:54:43.102Z,21.50
2022-10-19T16:57:11.882Z,21.30
2022-10-19T16:59:41.450Z,20.80
2022-10-19T17:02:12.322Z,20.50
2022-10-19T17:04:41.816Z,20.10
2022-10-19T17:07:10.451Z,20.00
2022-10-19T17:09:42.807Z,19.90
2022-10-19T17:12:12.788Z,20.00
2022-10-19T17:14:43.117Z,20.20
2022-10-19T17:17:15.329Z,20.40
2022-10-19T17:19:44.193Z,20.50
2022-10-19T17:22:11.556Z,20.30
2022-10-19T17:24:42.105Z,20.30
2022-10-19T17:27:10.987Z,20.30
2022-10-19T17:29:39.792Z,20.30
2022-10-19T17:32:14.048Z,20.20
2022-10-19T17:34:44.710Z,20.00
2022-10-19T17:37:16.936Z,19.70
2022-10-19T17:39:44.541Z,19.50
2022-10-19T17:42:12.540Z,19.60
2022-10-19T17:44:42.210Z,19.70
2022-10-19T17:47:11.990Z,19.90
2022-10-19T17:49:46.176Z,19.70
2022-10-19T17:52:19.696Z,19.50
2022-10-19T17:55:00.586Z,19.40
2022-10-19T17:57:38.870Z,19.50
2022-10-19T18:00:09.442Z,19.50
2022-10-19T18:02:44.185Z,19.50
2022-10-19T18:05:21.830Z,19.50
2022-10-19T18:07:51.564Z,19.30
2022-10-19T18:10:18.909Z,19.20
2022-10-19T18:12:49.199Z,19.30
2022-10-19T18:15:35.963Z,19.30
2022-10-19T18:18:03.899Z,18.90
2022-10-19T18:20:35.148Z,18.90
2022-10-19T18:23:03.094Z,19.00
2022-10-19T18:25:52.890Z,19.10
2022-10-19T18:28:24.392Z,19.20
2022-10-19T18:30:58.298Z,19.30
2022-10-19T18:33:29.091Z,19.10
2022-10-19T18:35:59.183Z,18.80
2022-10-19T18:38:26.488Z,18.80
2022-10-19T18:40:54.131Z,18.80
2022-10-19T18:43:21.450Z,18.80
2022-10-19T18:46:01.455Z,18.80
2022-10-19T18:48:30.019Z,18.40
2022-10-19T18:50:58.836Z,18.10
2022-10-19T18:53:26.860Z,18.20
2022-10-19T18:56:09.881Z,18.20
2022-10-19T18:58:38.233Z,18.10
2022-10-19T19:01:16.873Z,18.00
2022-10-19T19:03:50.062Z,18.10
2022-10-19T19:06:22.502Z,18.30
2022-10-19T19:08:58.867Z,18.00
2022-10-19T19:11:33.061Z,17.50
2022-10-19T19:14:31.298Z,16.80
2022-10-19T19:17:01.694Z,16.70
2022-10-19T19:19:30.914Z,16.90
2022-10-19T19:21:58.362Z,17.20
2022-10-19T19:24:32.027Z,17.50
2022-10-19T19:27:00.396Z,17.70
2022-10-19T19:29:28.133Z,17.80
2022-10-19T19:31:59.340Z,17.60
2022-10-19T19:34:29.281Z,17.30
2022-10-19T19:36:57.322Z,17.00
2022-10-19T19:39:25.443Z,17.20
2022-10-19T19:41:52.881Z,17.20
2022-10-19T19:44:23.212Z,17.30
2022-10-19T19:46:52.494Z,17.50
2022-10-19T19:49:21.097Z,17.60
2022-10-19T19:51:49.881Z,17.80
2022-10-19T19:54:17.655Z,17.80
2022-10-19T19:56:45.083Z,17.80
2022-10-19T19:59:13.928Z,17.80
2022-10-19T20:01:43.344Z,17.90
2022-10-19T20:04:11.694Z,18.00
2022-10-19T20:06:44.040Z,18.00
2022-10-19T20:09:13.424Z,17.80
2022-10-19T20:11:43.026Z,17.50
2022-10-19T20:14:13.293Z,17.00
2022-10-19T20:16:42.464Z,16.90
2022-10-19T20:19:14.931Z,17.00
2022-10-19T20:21:43.897Z,17.20
2022-10-19T20:24:12.831Z,17.40
2022-10-19T20:26:41.319Z,17.50
2022-10-19T20:29:09.059Z,17.60
2022-10-19T20:31:39.821Z,17.50
2022-10-19T20:34:14.830Z,17.00
2022-10-19T20:36:46.392Z,16.80
2022-10-19T20:39:14.703Z,16.90
2022-10-19T20:41:43.875Z,17.00
2022-10-19T20:44:12.788Z,17.20
2022-10-19T20:46:41.050Z,17.30
2022-10-19T20:49:11.064Z,17.50
2022-10-19T20:51:39.381Z,17.40
2022-10-19T20:54:13.499Z,16.50
2022-10-19T20:56:44.217Z,16.10
2022-10-19T20:59:20.911Z,16.00
2022-10-19T21:01:51.287Z,16.30
2022-10-19T21:04:21.011Z,16.50
2022-10-19T21:06:51.072Z,16.70
2022-10-19T21:09:20.909Z,16.70
2022-10-19T21:11:50.466Z,16.50
2022-10-19T21:14:28.439Z,16.30
2022-10-19T21:16:58.271Z,16.40
2022-10-19T21:19:27.686Z,16.50
2022-10-19T21:21:58.208Z,16.50
2022-10-19T21:24:28.864Z,16.70
2022-10-19T21:26:56.095Z,16.80
2022-10-19T21:29:24.867Z,16.80
2022-10-19T21:31:53.779Z,16.90
2022-10-19T21:34:24.312Z,16.60
2022-10-19T21:36:52.425Z,16.50
2022-10-19T21:39:21.455Z,16.70
2022-10-19T21:41:49.924Z,16.80
2022-10-19T21:44:18.770Z,16.80
2022-10-19T21:46:51.066Z,16.70
2022-10-19T21:49:18.740Z,16.70
2022-10-19T21:51:49.931Z,16.70
2022-10-19T21:54:19.987Z,16.80
2022-10-19T21:56:49.313Z,16.90
2022-10-19T21:59:18.074Z,17.00
2022-10-19T22:01:50.298Z,17.00
2022-10-19T22:04:18.895Z,17.00
2022-10-19T22:06:47.061Z,16.70
2022-10-19T22:09:20.843Z,16.70
2022-10-19T22:11:49.611Z,16.70
2022-10-19T22:14:17.085Z,16.60
2022-10-19T22:16:45.705Z,16.60
2022-10-19T22:19:17.161Z,16.70
2022-10-19T22:21:45.196Z,16.70
2022-10-19T22:24:15.502Z,16.40
2022-10-19T22:26:47.216Z,16.00
2022-10-19T22:29:15.884Z,15.80
2022-10-19T22:31:47.863Z,15.90
2022-10-19T22:34:17.276Z,16.10
2022-10-19T22:36:45.700Z,16.30
2022-10-19T22:39:15.052Z,16.40
2022-10-19T22:42:39.851Z,16.20
2022-10-19T22:46:25.321Z,15.90
2022-10-19T22:50:08.743Z,15.80
2022-10-19T22:53:00.805Z,16.00
2022-10-19T22:55:28.223Z,16.00
2022-10-19T22:57:56.051Z,15.80
2022-10-19T23:00:39.550Z,15.40
2022-10-19T23:03:12.431Z,15.40
2022-10-19T23:05:42.278Z,15.50
2022-10-19T23:08:12.307Z,15.60
2022-10-19T23:10:39.660Z,15.80
2022-10-19T23:13:36.579Z,16.00
2022-10-19T23:16:14.336Z,16.00
2022-10-19T23:18:42.064Z,15.80
2022-10-19T23:21:13.013Z,15.60
2022-10-19T23:23:41.399Z,15.60
2022-10-19T23:26:13.856Z,15.80
2022-10-19T23:28:42.679Z,15.90
2022-10-19T23:31:20.974Z,15.60
2022-10-19T23:33:48.354Z,15.30
2022-10-19T23:36:18.018Z,15.30
2022-10-19T23:38:46.886Z,15.40
2022-10-19T23:41:16.412Z,15.40
2022-10-19T23:43:44.329Z,15.50
2022-10-19T23:46:18.572Z,15.60
2022-10-19T23:48:48.081Z,15.60
2022-10-19T23:51:18.440Z,15.50
2022-10-19T23:53:47.946Z,15.50
2022-10-19T23:56:17.043Z,15.60
2022-10-19T23:58:45.153Z,15.70
